createdAt,value
2023-01-28T00:00:47.721Z,9.80
2023-01-28T00:03:15.908Z,8.77
2023-01-28T00:05:42.961Z,9.17
2023-01-28T00:08:10.137Z,9.43
2023-01-28T00:10:39.521Z,9.47
2023-01-28T00:13:07.115Z,8.77
2023-01-28T00:15:33.544Z,8.00
2023-01-28T00:18:00.358Z,8.20
2023-01-28T00:20:26.716Z,8.73
2023-01-28T00:22:53.050Z,7.20
2023-01-28T00:25:19.613Z,8.23
2023-01-28T00:27:46.081Z,7.47
2023-01-28T00:30:12.875Z,8.60
2023-01-28T00:32:39.229Z,6.83
2023-01-28T00:35:05.976Z,7.77
2023-01-28T00:37:32.653Z,7.03
2023-01-28T00:39:58.981Z,7.53
2023-01-28T00:42:25.464Z,8.43
2023-01-28T00:44:55.042Z,7.40
2023-01-28T00:47:21.946Z,8.10
2023-01-28T00:49:48.276Z,8.07
2023-01-28T00:52:14.739Z,8.07
2023-01-28T00:54:41.111Z,7.53
2023-01-28T00:57:07.954Z,7.50
2023-01-28T00:59:34.288Z,7.83
2023-01-28T01:02:12.276Z,9.53
2023-01-28T01:04:39.934Z,9.70
2023-01-28T01:07:06.975Z,10.30
2023-01-28T01:09:33.310Z,9.57
2023-01-28T01:11:59.834Z,7.40
2023-01-28T01:14:26.157Z,7.43
2023-01-28T01:16:52.484Z,8.47
2023-01-28T01:19:18.810Z,7.50
2023-01-28T01:21:50.247Z,7.97
2023-01-28T01:24:16.838Z,6.97
2023-01-28T01:26:43.270Z,7.40
2023-01-28T01:29:09.792Z,8.70
2023-01-28T01:31:36.248Z,9.87
2023-01-28T01:34:02.636Z,8.70
2023-01-28T01:36:29.066Z,7.43
2023-01-28T01:38:56.416Z,7.47
2023-01-28T01:41:31.971Z,7.90
2023-01-28T01:44:03.699Z,8.83
2023-01-28T01:46:38.189Z,10.20
2023-01-28T01:49:24.831Z,9.13
2023-01-28T01:51:57.763Z,9.07
2023-01-28T01:54:28.390Z,8.13
2023-01-28T01:56:58.481Z,8.83
2023-01-28T01:59:32.126Z,9.13
2023-01-28T02:02:03.349Z,9.37
2023-01-28T02:04:35.432Z,11.50
2023-01-28T02:07:02.622Z,10.63
2023-01-28T02:09:36.077Z,9.67
2023-01-28T02:12:08.426Z,10.67
2023-01-28T02:14:41.079Z,8.80
2023-01-28T02:17:08.896Z,9.33
2023-01-28T02:19:40.721Z,8.03
2023-01-28T02:22:49.193Z,9.23
2023-01-28T02:25:34.628Z,8.03
2023-01-28T02:28:27.715Z,8.73
2023-01-28T02:31:01.015Z,8.40
2023-01-28T02:33:35.858Z,7.40
2023-01-28T02:36:12.462Z,7.63
2023-01-28T02:38:46.586Z,8.03
2023-01-28T02:41:20.806Z,7.40
2023-01-28T02:43:48.205Z,7.63
2023-01-28T02:46:45.474Z,8.70
2023-01-28T02:49:16.351Z,8.07
2023-01-28T02:52:00.918Z,8.30
2023-01-28T02:54:52.050Z,8.70
2023-01-28T02:57:42.944Z,9.33
2023-01-28T03:00:25.853Z,9.40
2023-01-28T03:03:02.147Z,8.80
2023-01-28T03:05:37.717Z,9.20
2023-01-28T03:08:26.707Z,8.93
2023-01-28T03:11:15.020Z,8.13
2023-01-28T03:14:02.670Z,10.33
2023-01-28T03:16:51.119Z,9.40
2023-01-28T03:19:36.915Z,9.50
2023-01-28T03:22:22.885Z,9.87
2023-01-28T03:25:11.703Z,8.90
2023-01-28T03:28:09.725Z,9.33
2023-01-28T03:31:13.777Z,8.03
2023-01-28T03:34:06.187Z,9.57
2023-01-28T03:36:51.280Z,9.57
2023-01-28T03:39:37.163Z,10.00
2023-01-28T03:42:11.211Z,8.33
2023-01-28T03:44:51.880Z,11.67
2023-01-28T03:47:27.241Z,9.47
2023-01-28T03:49:55.808Z,11.47
2023-01-28T03:52:31.815Z,11.43
2023-01-28T03:55:15.976Z,13.27
2023-01-28T03:57:44.643Z,13.70
2023-01-28T04:00:12.500Z,13.63
2023-01-28T04:02:41.851Z,12.63
2023-01-28T04:05:12.835Z,11.60
2023-01-28T04:07:44.785Z,14.00
2023-01-28T04:10:39.130Z,13.43
2023-01-28T04:13:13.518Z,12.57
2023-01-28T04:15:40.264Z,14.07
2023-01-28T04:18:09.848Z,13.70
2023-01-28T04:20:37.846Z,14.43
2023-01-28T04:23:04.902Z,13.97
2023-01-28T04:25:32.070Z,12.33
2023-01-28T04:27:59.040Z,15.93
2023-01-28T04:30:28.519Z,12.60
2023-01-28T04:33:06.581Z,13.53
2023-01-28T04:35:51.062Z,13.87
2023-01-28T04:38:24.216Z,13.50
2023-01-28T04:41:00.125Z,13.17
2023-01-28T04:43:30.344Z,14.23
2023-01-28T04:46:19.403Z,12.20
2023-01-28T04:48:55.381Z,11.70
2023-01-28T04:51:39.267Z,13.37
2023-01-28T04:54:11.537Z,13.13
2023-01-28T04:56:37.929Z,14.03
2023-01-28T04:59:04.510Z,13.87
2023-01-28T05:01:32.219Z,17.37
2023-01-28T05:03:59.551Z,15.47
2023-01-28T05:06:27.687Z,15.40
2023-01-28T05:08:56.434Z,13.03
2023-01-28T05:11:22.814Z,14.00
2023-01-28T05:13:54.909Z,13.00
2023-01-28T05:16:21.333Z,13.87
2023-01-28T05:18:48.031Z,13.10
2023-01-28T05:21:16.305Z,12.67
2023-01-28T05:23:44.036Z,13.77
2023-01-28T05:26:10.628Z,18.73
2023-01-28T05:28:38.030Z,13.50
2023-01-28T05:31:07.553Z,14.80
2023-01-28T05:33:34.392Z,13.80
2023-01-28T05:36:02.156Z,13.47
2023-01-28T05:38:28.581Z,13.27
2023-01-28T05:40:55.025Z,14.93
2023-01-28T05:43:22.088Z,14.07
2023-01-28T05:46:08.620Z,14.00
2023-01-28T05:48:54.925Z,14.10
2023-01-28T05:51:36.127Z,18.13
2023-01-28T05:54:03.288Z,18.00
2023-01-28T05:56:30.352Z,14.90
2023-01-28T05:58:56.713Z,18.20
2023-01-28T06:01:23.234Z,18.53
2023-01-28T06:03:53.535Z,27.13
2023-01-28T06:06:20.028Z,19.70
2023-01-28T06:08:46.801Z,19.33
2023-01-28T06:11:19.962Z,18.13
2023-01-28T06:13:47.079Z,18.87
2023-01-28T06:16:42.593Z,23.93
2023-01-28T06:19:28.153Z,19.60
2023-01-28T06:21:55.139Z,22.63
2023-01-28T06:24:21.581Z,26.90
2023-01-28T06:26:48.157Z,19.90
2023-01-28T06:29:15.031Z,19.23
2023-01-28T06:31:41.482Z,19.27
2023-01-28T06:34:09.831Z,20.37
2023-01-28T06:36:37.981Z,19.13
2023-01-28T06:39:04.673Z,19.80
2023-01-28T06:41:30.978Z,20.53
2023-01-28T06:43:57.550Z,20.63
2023-01-28T06:46:24.774Z,20.40
2023-01-28T06:48:51.433Z,22.87
2023-01-28T06:51:17.747Z,18.17
2023-01-28T06:53:45.971Z,21.43
2023-01-28T06:56:12.494Z,17.60
2023-01-28T06:58:38.815Z,18.47
2023-01-28T07:01:10.115Z,18.03
2023-01-28T07:03:37.063Z,15.87
2023-01-28T07:06:03.605Z,20.13
2023-01-28T07:08:29.954Z,15.60
2023-01-28T07:10:56.277Z,20.77
2023-01-28T07:13:22.608Z,22.40
2023-01-28T07:15:49.632Z,18.70
2023-01-28T07:18:16.160Z,18.43
2023-01-28T07:20:42.484Z,24.97
2023-01-28T07:23:08.807Z,18.63
2023-01-28T07:25:35.222Z,18.23
2023-01-28T07:28:01.590Z,17.23
2023-01-28T07:30:28.024Z,17.20
2023-01-28T07:32:59.006Z,18.67
2023-01-28T07:35:26.251Z,16.90
2023-01-28T07:37:56.874Z,18.90
2023-01-28T07:40:24.494Z,14.57
2023-01-28T07:42:52.073Z,18.40
2023-01-28T07:45:22.340Z,16.07
2023-01-28T07:48:00.249Z,32.37
2023-01-28T07:50:29.111Z,16.87
2023-01-28T07:52:56.786Z,26.40
2023-01-28T07:55:23.735Z,17.60
2023-01-28T07:57:55.490Z,28.60
2023-01-28T08:00:23.365Z,19.87
2023-01-28T08:02:50.433Z,24.57
2023-01-28T08:05:21.370Z,17.40
2023-01-28T08:07:48.779Z,18.20
2023-01-28T08:10:19.093Z,22.77
2023-01-28T08:12:59.043Z,21.67
2023-01-28T08:15:26.124Z,20.00
2023-01-28T08:17:59.367Z,22.10
2023-01-28T08:20:27.312Z,16.70
2023-01-28T08:22:54.351Z,17.03
2023-01-28T08:25:21.080Z,22.00
2023-01-28T08:27:47.436Z,18.07
2023-01-28T08:30:14.240Z,16.63
2023-01-28T08:32:40.774Z,17.30
2023-01-28T08:35:07.775Z,17.93
2023-01-28T08:37:34.179Z,16.13
2023-01-28T08:40:00.703Z,22.43
2023-01-28T08:42:27.066Z,16.83
2023-01-28T08:44:53.406Z,22.80
2023-01-28T08:47:20.243Z,17.40
2023-01-28T08:49:46.578Z,24.53
2023-01-28T08:52:12.914Z,16.67
2023-01-28T08:54:39.232Z,17.83
2023-01-28T08:57:05.616Z,19.83
2023-01-28T08:59:31.920Z,17.07
2023-01-28T09:01:58.577Z,19.70
2023-01-28T09:04:24.925Z,18.40
2023-01-28T09:06:51.279Z,23.83
2023-01-28T09:09:17.705Z,17.87
2023-01-28T09:11:44.127Z,20.17
2023-01-28T09:14:10.433Z,20.10
2023-01-28T09:16:36.766Z,18.97
2023-01-28T09:19:03.112Z,21.90
2023-01-28T09:21:29.494Z,18.17
2023-01-28T09:23:56.749Z,20.77
2023-01-28T09:26:23.084Z,19.20
2023-01-28T09:28:49.406Z,20.63
2023-01-28T09:31:15.844Z,21.30
2023-01-28T09:33:42.263Z,22.23
2023-01-28T09:36:11.341Z,17.27
2023-01-28T09:38:37.769Z,19.80
2023-01-28T09:41:21.418Z,22.63
2023-01-28T09:44:10.967Z,17.83
2023-01-28T09:46:38.375Z,18.30
2023-01-28T09:49:20.048Z,20.20
2023-01-28T09:51:53.747Z,17.43
2023-01-28T09:54:44.178Z,17.83
2023-01-28T09:57:20.671Z,18.60
2023-01-28T09:59:47.244Z,19.73
2023-01-28T10:02:44.392Z,19.20
2023-01-28T10:05:20.216Z,19.33
2023-01-28T10:08:05.734Z,16.97
2023-01-28T10:10:41.986Z,17.70
2023-01-28T10:13:37.845Z,22.70
2023-01-28T10:16:09.137Z,25.30
2023-01-28T10:18:43.598Z,20.17
2023-01-28T10:21:16.716Z,18.60
2023-01-28T10:24:04.790Z,18.67
2023-01-28T10:26:36.390Z,18.97
2023-01-28T10:29:19.503Z,18.63
2023-01-28T10:31:55.076Z,17.43
2023-01-28T10:34:22.623Z,17.33
2023-01-28T10:36:50.299Z,17.30
2023-01-28T10:39:19.795Z,17.97
2023-01-28T10:41:57.453Z,17.23
2023-01-28T10:44:42.226Z,21.47
2023-01-28T10:47:14.479Z,22.07
2023-01-28T10:49:56.223Z,26.33
2023-01-28T10:52:22.564Z,23.67
2023-01-28T10:54:59.433Z,21.30
2023-01-28T10:57:25.840Z,17.10
2023-01-28T10:59:52.242Z,20.20
2023-01-28T11:02:26.491Z,19.67
2023-01-28T11:05:02.921Z,19.47
2023-01-28T11:07:29.312Z,23.33
2023-01-28T11:09:55.650Z,25.20
2023-01-28T11:12:27.640Z,22.73
2023-01-28T11:15:02.514Z,21.67
2023-01-28T11:17:32.683Z,20.70
2023-01-28T11:20:01.698Z,22.10
2023-01-28T11:22:34.105Z,26.80
2023-01-28T11:25:04.697Z,26.80
2023-01-28T11:27:32.554Z,25.73
2023-01-28T11:30:04.496Z,19.83
2023-01-28T11:32:31.255Z,25.23
2023-01-28T11:34:58.218Z,30.63
2023-01-28T11:37:27.305Z,25.20
2023-01-28T11:40:23.563Z,24.87
2023-01-28T11:42:52.261Z,23.20
2023-01-28T11:45:23.393Z,26.57
2023-01-28T11:48:06.541Z,24.23
2023-01-28T11:51:09.302Z,22.60
2023-01-28T11:53:58.557Z,22.13
2023-01-28T11:57:01.744Z,23.23
2023-01-28T11:59:49.602Z,21.43
2023-01-28T12:03:10.197Z,21.87
2023-01-28T12:05:50.116Z,21.00
2023-01-28T12:08:28.340Z,20.13
2023-01-28T12:11:20.795Z,19.40
2023-01-28T12:14:12.571Z,25.57
2023-01-28T12:17:06.561Z,25.03
2023-01-28T12:19:46.601Z,23.50
2023-01-28T12:22:22.739Z,21.97
2023-01-28T12:24:54.867Z,23.00
2023-01-28T12:27:50.919Z,22.37
2023-01-28T12:30:42.820Z,24.10
2023-01-28T12:33:33.306Z,19.07
2023-01-28T12:36:43.109Z,21.80
2023-01-28T12:39:47.993Z,19.70
2023-01-28T12:42:23.207Z,28.17
2023-01-28T12:44:59.742Z,23.03
2023-01-28T12:47:36.272Z,24.67
2023-01-28T12:50:14.550Z,24.83
2023-01-28T12:52:47.120Z,19.97
2023-01-28T12:55:28.902Z,23.73
2023-01-28T12:57:58.586Z,20.63
2023-01-28T13:00:33.523Z,24.53
2023-01-28T13:03:18.918Z,19.60
2023-01-28T13:05:56.935Z,25.37
2023-01-28T13:08:25.586Z,23.07
2023-01-28T13:10:53.664Z,23.77
2023-01-28T13:13:29.719Z,25.17
2023-01-28T13:15:56.553Z,24.87
2023-01-28T13:18:45.215Z,24.33
2023-01-28T13:21:34.636Z,30.17
2023-01-28T13:24:09.289Z,26.03
2023-01-28T13:26:42.256Z,25.07
2023-01-28T13:29:14.827Z,21.33
2023-01-28T13:31:53.466Z,20.67
2023-01-28T13:34:59.768Z,25.10
2023-01-28T13:37:44.141Z,23.93
2023-01-28T13:40:13.459Z,21.77
2023-01-28T13:42:41.024Z,24.03
2023-01-28T13:45:23.094Z,22.83
2023-01-28T13:48:02.280Z,24.90
2023-01-28T13:50:39.302Z,27.37
2023-01-28T13:53:28.228Z,27.20
2023-01-28T13:55:58.736Z,26.93
2023-01-28T13:58:49.283Z,25.07
2023-01-28T14:01:34.506Z,25.77
2023-01-28T14:04:31.244Z,27.07
2023-01-28T14:07:22.168Z,22.07
2023-01-28T14:10:03.384Z,24.70
2023-01-28T14:12:56.178Z,24.13
2023-01-28T14:15:33.636Z,22.00
2023-01-28T14:18:00.152Z,29.00
2023-01-28T14:20:37.512Z,25.03
2023-01-28T14:23:06.151Z,35.47
2023-01-28T14:25:47.489Z,29.37
2023-01-28T14:28:21.337Z,26.10
2023-01-28T14:30:53.504Z,27.63
2023-01-28T14:33:22.332Z,27.87
2023-01-28T14:35:49.763Z,28.53
2023-01-28T14:38:21.784Z,24.17
2023-01-28T14:40:53.389Z,24.40
2023-01-28T14:43:23.687Z,38.07
2023-01-28T14:46:19.507Z,25.10
2023-01-28T14:49:17.205Z,27.23
2023-01-28T14:52:08.809Z,28.50
2023-01-28T14:54:38.176Z,32.80
2023-01-28T14:57:19.531Z,27.33
2023-01-28T14:59:54.162Z,28.87
2023-01-28T15:02:28.993Z,29.90
2023-01-28T15:05:07.824Z,30.57
2023-01-28T15:07:34.134Z,31.30
2023-01-28T15:10:06.840Z,25.77
2023-01-28T15:12:37.527Z,27.13
2023-01-28T15:15:40.349Z,27.70
2023-01-28T15:18:26.614Z,25.03
2023-01-28T15:20:55.084Z,24.87
2023-01-28T15:23:40.319Z,30.43
2023-01-28T15:26:12.227Z,28.17
2023-01-28T15:28:39.850Z,28.07
2023-01-28T15:31:07.051Z,24.90
2023-01-28T15:33:33.563Z,23.97
2023-01-28T15:36:00.199Z,24.13
2023-01-28T15:38:28.741Z,28.27
2023-01-28T15:41:00.713Z,31.20
2023-01-28T15:43:33.166Z,27.20
2023-01-28T15:46:00.508Z,27.37
2023-01-28T15:48:30.834Z,22.37
2023-01-28T15:50:59.953Z,23.10
2023-01-28T15:53:28.210Z,33.37
2023-01-28T15:56:14.549Z,27.47
2023-01-28T15:58:41.792Z,23.83
2023-01-28T16:01:08.210Z,25.20
2023-01-28T16:03:36.961Z,26.47
2023-01-28T16:06:09.577Z,32.93
2023-01-28T16:08:40.689Z,30.67
2023-01-28T16:11:09.509Z,28.53
2023-01-28T16:13:42.684Z,28.87
2023-01-28T16:16:10.260Z,33.83
2023-01-28T16:18:43.268Z,28.93
2023-01-28T16:21:12.625Z,35.23
2023-01-28T16:23:39.904Z,33.50
2023-01-28T16:26:21.135Z,39.93
2023-01-28T16:28:47.553Z,37.70
2023-01-28T16:31:14.200Z,31.93
2023-01-28T16:33:40.619Z,37.27
2023-01-28T16:36:10.897Z,35.07
2023-01-28T16:38:37.248Z,31.10
2023-01-28T16:41:03.789Z,35.03
2023-01-28T16:43:30.476Z,29.20
2023-01-28T16:45:56.848Z,30.73
2023-01-28T16:48:23.301Z,34.10
2023-01-28T16:50:49.762Z,29.80
2023-01-28T16:53:20.968Z,36.30
2023-01-28T16:55:50.742Z,36.20
2023-01-28T16:58:21.434Z,33.33
2023-01-28T17:00:47.808Z,39.23
2023-01-28T17:03:14.248Z,29.57
2023-01-28T17:05:40.646Z,38.07
2023-01-28T17:08:07.281Z,31.90
2023-01-28T17:10:33.961Z,38.93
2023-01-28T17:13:00.350Z,32.87
2023-01-28T17:15:26.694Z,42.57
2023-01-28T17:17:53.582Z,35.73
2023-01-28T17:20:19.972Z,33.90
2023-01-28T17:22:46.359Z,33.90
2023-01-28T17:25:14.511Z,39.47
2023-01-28T17:27:41.154Z,36.73
2023-01-28T17:30:08.109Z,39.73
2023-01-28T17:32:34.482Z,41.77
2023-01-28T17:35:01.123Z,38.73
2023-01-28T17:37:27.438Z,35.60
2023-01-28T17:39:53.746Z,33.10
2023-01-28T17:42:20.069Z,40.67
2023-01-28T17:44:46.430Z,40.40
2023-01-28T17:47:12.772Z,41.57
2023-01-28T17:49:39.096Z,42.73
2023-01-28T17:52:05.677Z,46.77
2023-01-28T17:54:32.105Z,42.27
2023-01-28T17:56:58.547Z,40.93
2023-01-28T17:59:25.868Z,42.53
2023-01-28T18:01:54.449Z,44.00
2023-01-28T18:04:20.823Z,53.70
2023-01-28T18:06:49.004Z,44.47
2023-01-28T18:09:15.384Z,37.73
2023-01-28T18:11:41.719Z,45.07
2023-01-28T18:14:08.147Z,40.50
2023-01-28T18:16:34.489Z,48.00
2023-01-28T18:19:00.842Z,46.07
2023-01-28T18:21:51.722Z,41.27
2023-01-28T18:24:19.959Z,47.53
2023-01-28T18:26:46.417Z,41.47
2023-01-28T18:29:16.617Z,38.07
2023-01-28T18:31:43.186Z,54.53
2023-01-28T18:34:09.621Z,51.47
2023-01-28T18:36:35.944Z,47.50
2023-01-28T18:39:02.290Z,53.13
2023-01-28T18:41:28.625Z,57.23
2023-01-28T18:43:54.945Z,51.30
2023-01-28T18:46:21.328Z,53.07
2023-01-28T18:48:47.722Z,63.43
2023-01-28T18:51:28.818Z,46.07
2023-01-28T18:53:59.758Z,52.13
2023-01-28T18:56:27.716Z,57.57
2023-01-28T18:59:03.321Z,61.30
2023-01-28T19:01:31.321Z,56.77
2023-01-28T19:03:58.353Z,54.67
2023-01-28T19:06:27.065Z,56.70
2023-01-28T19:08:59.871Z,69.43
2023-01-28T19:11:29.146Z,49.57
2023-01-28T19:13:56.885Z,55.43
2023-01-28T19:16:23.764Z,58.97
2023-01-28T19:18:55.113Z,55.00
2023-01-28T19:21:22.904Z,55.20
2023-01-28T19:24:01.663Z,55.97
2023-01-28T19:26:30.350Z,58.87
2023-01-28T19:28:57.099Z,50.40
2023-01-28T19:31:25.116Z,66.23
2023-01-28T19:33:57.092Z,54.70
2023-01-28T19:36:26.180Z,60.93
2023-01-28T19:38:56.362Z,58.80
2023-01-28T19:41:22.941Z,52.60
2023-01-28T19:43:49.344Z,64.30
2023-01-28T19:46:17.610Z,62.40
2023-01-28T19:48:45.365Z,52.47
2023-01-28T19:51:12.965Z,58.07
2023-01-28T19:53:40.605Z,57.70
2023-01-28T19:56:10.691Z,52.20
2023-01-28T19:58:39.949Z,57.60
2023-01-28T20:01:08.491Z,57.83
2023-01-28T20:03:35.657Z,65.50
2023-01-28T20:06:03.841Z,67.20
2023-01-28T20:08:30.536Z,57.30
2023-01-28T20:11:08.750Z,56.83
2023-01-28T20:13:36.437Z,62.57
2023-01-28T20:16:07.544Z,67.37
2023-01-28T20:18:35.297Z,64.40
2023-01-28T20:21:01.926Z,55.23
2023-01-28T20:23:28.457Z,59.43
2023-01-28T20:25:58.605Z,55.23
2023-01-28T20:28:25.373Z,70.33
2023-01-28T20:30:53.527Z,78.23
2023-01-28T20:33:20.716Z,66.07
2023-01-28T20:35:47.065Z,69.73
2023-01-28T20:38:14.529Z,68.53
2023-01-28T20:40:42.270Z,55.90
2023-01-28T20:43:09.462Z,68.50
2023-01-28T20:45:35.838Z,70.43
2023-01-28T20:48:02.386Z,73.57
2023-01-28T20:50:28.733Z,81.37
2023-01-28T20:52:55.141Z,77.07
2023-01-28T20:55:21.571Z,81.40
2023-01-28T20:57:48.366Z,76.50
2023-01-28T21:00:15.555Z,84.93
2023-01-28T21:02:44.176Z,83.10
2023-01-28T21:05:10.690Z,75.70
2023-01-28T21:07:37.359Z,89.03
2023-01-28T21:10:04.834Z,89.43
2023-01-28T21:12:31.387Z,85.97
2023-01-28T21:14:57.872Z,97.80
2023-01-28T21:17:25.352Z,86.97
2023-01-28T21:19:52.094Z,86.70
2023-01-28T21:22:19.978Z,90.47
2023-01-28T21:24:48.736Z,84.30
2023-01-28T21:27:15.082Z,92.23
2023-01-28T21:29:41.955Z,86.57
2023-01-28T21:32:08.494Z,88.40
2023-01-28T21:34:34.903Z,89.37
2023-01-28T21:37:01.217Z,90.37
2023-01-28T21:39:27.554Z,95.33
2023-01-28T21:41:54.107Z,91.00
2023-01-28T21:44:20.466Z,90.47
2023-01-28T21:46:46.943Z,106.60
2023-01-28T21:49:13.312Z,94.70
2023-01-28T21:51:39.906Z,98.37
2023-01-28T21:54:11.347Z,86.70
2023-01-28T21:56:37.790Z,98.70
2023-01-28T21:59:23.311Z,101.63
2023-01-28T22:01:49.755Z,95.13
2023-01-28T22:04:16.197Z,104.77
2023-01-28T22:06:42.936Z,110.87
2023-01-28T22:09:13.521Z,98.83
2023-01-28T22:11:41.311Z,94.57
2023-01-28T22:14:08.199Z,94.93
2023-01-28T22:16:34.568Z,88.97
2023-01-28T22:19:01.008Z,88.03
2023-01-28T22:21:27.987Z,111.47
2023-01-28T22:23:54.451Z,101.57
2023-01-28T22:26:20.863Z,92.47
2023-01-28T22:28:47.227Z,90.37
2023-01-28T22:31:16.256Z,100.80
2023-01-28T22:33:43.774Z,112.63
2023-01-28T22:36:15.593Z,93.30
2023-01-28T22:38:43.600Z,102.17
2023-01-28T22:41:13.349Z,107.40
2023-01-28T22:43:40.826Z,103.77
2023-01-28T22:46:07.650Z,104.17
2023-01-28T22:48:37.083Z,104.93
2023-01-28T22:51:09.276Z,102.93
2023-01-28T22:53:35.652Z,106.17
2023-01-28T22:56:02.652Z,108.70
2023-01-28T22:58:31.509Z,101.00
2023-01-28T23:00:58.503Z,107.20
2023-01-28T23:03:25.522Z,98.57
2023-01-28T23:05:52.228Z,99.63
2023-01-28T23:08:18.763Z,111.47
2023-01-28T23:10:49.977Z,93.27
2023-01-28T23:13:18.391Z,95.47
2023-01-28T23:16:04.360Z,101.53
2023-01-28T23:18:49.041Z,98.80
2023-01-28T23:21:36.816Z,94.60
2023-01-28T23:24:19.451Z,89.70
2023-01-28T23:26:54.247Z,102.67
2023-01-28T23:29:24.997Z,92.53
2023-01-28T23:32:01.198Z,83.50
2023-01-28T23:34:31.658Z,87.67
2023-01-28T23:36:58.480Z,93.10
2023-01-28T23:39:24.812Z,102.70
2023-01-28T23:41:51.146Z,85.67
2023-01-28T23:44:18.481Z,86.67
2023-01-28T23:46:44.933Z,81.33
2023-01-28T23:49:11.277Z,90.23
2023-01-28T23:51:37.596Z,81.60
2023-01-28T23:54:04.050Z,85.27
2023-01-28T23:56:30.381Z,86.23
2023-01-28T23:58:56.850Z,94.33
